Time;durP1;ratioP1;P1;durP2;ratioP2;P2;SDS_P1;SDS_P2;PMS_P1;PMS_P2;Temp;Humidity;BMP_temperature;BMP_pressure;BME280_temperature;BME280_humidity;BME280_pressure;Samples;Min_cycle;Max_cycle;Signal;HPM_P1;HPM_P2
2022/04/23 00:01:45;;;;;;;3.70;1.20;;;19.50;99.90;;;;;;5031181;28;20061;-67
2022/04/23 00:04:13;;;;;;;3.45;0.82;;;19.40;99.90;;;;;;5031364;28;20029;-67
2022/04/23 00:06:43;;;;;;;5.35;0.40;;;19.50;99.90;;;;;;5025982;28;20509;-67
2022/04/23 00:09:11;;;;;;;6.57;1.05;;;19.50;99.90;;;;;;5032632;28;20029;-68
2022/04/23 00:11:38;;;;;;;5.47;0.52;;;19.60;99.90;;;;;;5028672;28;20025;-67
2022/04/23 00:14:07;;;;;;;2.60;0.60;;;19.60;99.90;;;;;;5033145;28;20021;-67
2022/04/23 00:16:34;;;;;;;2.50;0.82;;;19.50;99.90;;;;;;5023339;28;20030;-67
2022/04/23 00:19:02;;;;;;;2.47;0.50;;;19.30;99.90;;;;;;5026982;28;20053;-67
2022/04/23 00:21:29;;;;;;;1.95;0.80;;;19.40;99.90;;;;;;5029009;28;20033;-67
2022/04/23 00:23:57;;;;;;;1.80;0.40;;;19.40;99.90;;;;;;5016159;28;20022;-68
2022/04/23 00:26:24;;;;;;;4.32;0.85;;;19.50;99.90;;;;;;5013861;28;20105;-67
2022/04/23 00:28:51;;;;;;;4.60;0.60;;;19.40;99.90;;;;;;5031379;28;20029;-67
2022/04/23 00:31:19;;;;;;;4.43;0.77;;;19.40;99.90;;;;;;5030578;28;20517;-67
2022/04/23 00:33:46;;;;;;;3.05;0.63;;;19.60;99.90;;;;;;5032925;28;20032;-67
2022/04/23 00:36:13;;;;;;;3.42;0.40;;;19.70;99.90;;;;;;5029897;28;20033;-67
2022/04/23 00:38:42;;;;;;;3.33;0.90;;;19.80;99.90;;;;;;5032098;28;20028;-68
2022/04/23 00:41:43;;;;;;;3.42;0.70;;;20.00;99.90;;;;;;5030947;28;20032;-67
2022/04/23 00:44:01;;;;;;;3.30;0.50;;;20.00;99.90;;;;;;5031574;28;20030;-68
2022/04/23 00:46:28;;;;;;;3.40;0.28;;;20.40;99.90;;;;;;5030778;28;20029;-68
2022/04/23 00:48:55;;;;;;;3.03;0.57;;;20.40;99.90;;;;;;5031638;28;20029;-67
2022/04/23 00:51:23;;;;;;;3.95;0.65;;;20.90;99.90;;;;;;5030975;28;20029;-68
2022/04/23 00:53:51;;;;;;;6.65;0.57;;;20.60;99.90;;;;;;5031129;28;20034;-68
2022/04/23 00:56:18;;;;;;;2.70;0.40;;;21.30;99.90;;;;;;5025688;28;20056;-68
2022/04/23 00:58:46;;;;;;;5.30;0.77;;;21.80;99.90;;;;;;5018974;28;20022;-68
2022/04/23 01:01:14;;;;;;;2.00;0.80;;;21.80;99.90;;;;;;5031934;28;20038;-68
2022/04/23 01:03:43;;;;;;;3.00;0.77;;;21.80;99.90;;;;;;5033051;28;20028;-68
2022/04/23 01:06:11;;;;;;;3.35;0.50;;;22.00;99.90;;;;;;5031429;28;20030;-68
2022/04/23 01:08:38;;;;;;;3.88;0.60;;;21.60;99.90;;;;;;5031313;28;20033;-67
2022/04/23 01:11:06;;;;;;;3.63;0.45;;;21.70;99.90;;;;;;5031133;28;20025;-68
2022/04/23 01:13:33;;;;;;;3.00;0.50;;;21.30;99.90;;;;;;5032751;28;20029;-68
2022/04/23 01:16:04;;;;;;;1.05;0.32;;;21.80;99.90;;;;;;5025310;28;20025;-67
2022/04/23 01:18:32;;;;;;;2.22;0.40;;;21.70;99.90;;;;;;5017058;28;20037;-68
2022/04/23 01:21:01;;;;;;;3.05;0.30;;;21.60;99.90;;;;;;5032109;28;20025;-68
2022/04/23 01:23:29;;;;;;;8.68;0.80;;;21.80;99.90;;;;;;5029864;28;20027;-67
2022/04/23 01:25:57;;;;;;;1.67;0.38;;;21.50;99.90;;;;;;5027588;28;20489;-67
2022/04/23 01:28:27;;;;;;;5.25;0.57;;;22.00;99.90;;;;;;5028685;28;20029;-67
2022/04/23 01:30:59;;;;;;;2.60;0.40;;;22.40;99.90;;;;;;5029177;28;20022;-67
2022/04/23 01:33:27;;;;;;;7.70;0.60;;;22.70;99.90;;;;;;5031795;28;20022;-68
2022/04/23 01:35:54;;;;;;;5.82;0.68;;;22.60;99.90;;;;;;5028553;28;20501;-67
2022/04/23 01:38:21;;;;;;;4.75;0.50;;;22.40;99.90;;;;;;5030126;28;20026;-67
2022/04/23 01:40:48;;;;;;;3.03;0.20;;;22.30;99.90;;;;;;5029861;28;20017;-68
2022/04/23 01:43:16;;;;;;;2.45;0.35;;;21.60;99.90;;;;;;5027348;28;20030;-68
2022/04/23 01:45:44;;;;;;;3.80;0.88;;;21.10;99.90;;;;;;5018445;28;20351;-68
2022/04/23 01:48:11;;;;;;;4.45;0.70;;;21.40;99.90;;;;;;5033309;28;20032;-68
2022/04/23 01:50:39;;;;;;;10.52;0.98;;;21.10;99.90;;;;;;5020274;28;20026;-68
2022/04/23 01:53:06;;;;;;;4.22;0.82;;;20.90;99.90;;;;;;5032337;28;20482;-68
2022/04/23 01:55:33;;;;;;;3.10;0.40;;;20.90;99.90;;;;;;5023853;28;20029;-68
2022/04/23 01:58:01;;;;;;;2.05;0.20;;;21.70;99.90;;;;;;5036056;28;20025;-68
2022/04/23 02:00:28;;;;;;;2.25;0.50;;;21.50;99.90;;;;;;5024867;28;20064;-68
2022/04/23 02:02:57;;;;;;;6.30;0.63;;;20.80;99.90;;;;;;5015265;28;20377;-68
2022/04/23 02:05:24;;;;;;;2.55;0.30;;;20.70;99.90;;;;;;5022184;28;20076;-68
2022/04/23 02:07:51;;;;;;;2.42;0.45;;;21.40;99.90;;;;;;5035681;28;20108;-68
2022/04/23 02:10:19;;;;;;;3.97;0.60;;;22.10;99.90;;;;;;5033689;28;20377;-68
2022/04/23 02:12:46;;;;;;;3.03;0.40;;;21.70;99.90;;;;;;5034617;28;20021;-68
2022/04/23 02:15:17;;;;;;;2.55;0.30;;;21.50;99.90;;;;;;5027033;28;20041;-68
2022/04/23 02:17:48;;;;;;;3.20;0.70;;;21.20;99.90;;;;;;5031427;28;20096;-68
2022/04/23 02:20:16;;;;;;;4.55;0.63;;;21.00;99.90;;;;;;5033435;28;20037;-68
2022/04/23 02:22:45;;;;;;;2.35;0.40;;;21.70;99.90;;;;;;5033260;28;20533;-68
2022/04/23 02:25:14;;;;;;;3.38;0.68;;;21.60;99.90;;;;;;5035679;28;20025;-68
2022/04/23 02:27:46;;;;;;;2.88;0.38;;;21.40;99.90;;;;;;5032049;28;20069;-68
2022/04/23 02:30:18;;;;;;;1.30;0.20;;;22.00;99.90;;;;;;5028227;28;20485;-68
2022/04/23 02:32:47;;;;;;;4.60;0.63;;;22.50;99.90;;;;;;5034620;28;20490;-68
2022/04/23 02:35:16;;;;;;;1.38;0.20;;;22.80;99.90;;;;;;5034514;28;20025;-67
2022/04/23 02:37:47;;;;;;;2.55;0.82;;;23.00;99.90;;;;;;5034659;28;20025;-68
2022/04/23 02:40:16;;;;;;;1.95;0.20;;;22.90;99.90;;;;;;5033818;28;20120;-68
2022/04/23 02:42:44;;;;;;;5.40;0.77;;;22.30;99.90;;;;;;5032283;28;20033;-68
2022/04/23 02:45:15;;;;;;;4.00;0.30;;;21.80;99.90;;;;;;5032400;28;20048;-68
2022/04/23 02:47:48;;;;;;;1.48;0.22;;;21.80;99.90;;;;;;5031645;28;20037;-68
2022/04/23 02:50:24;;;;;;;1.90;0.20;;;21.50;99.90;;;;;;5034540;28;20391;-68
2022/04/23 02:52:53;;;;;;;3.45;0.55;;;21.40;99.90;;;;;;5034423;28;20060;-68
2022/04/23 02:55:22;;;;;;;9.10;0.50;;;21.70;99.90;;;;;;5032989;28;20099;-68
2022/04/23 02:57:50;;;;;;;3.75;0.50;;;22.10;99.90;;;;;;5034093;28;20037;-68
2022/04/23 03:00:18;;;;;;;2.95;0.50;;;22.10;99.90;;;;;;5030545;28;20049;-68
2022/04/23 03:02:47;;;;;;;1.77;0.52;;;22.80;99.90;;;;;;5048530;28;20041;-68
2022/04/23 03:05:15;;;;;;;2.78;0.40;;;22.60;99.90;;;;;;5045057;28;20025;-68
2022/04/23 03:07:42;;;;;;;4.22;0.50;;;22.30;99.90;;;;;;5028872;28;20029;-68
2022/04/23 03:10:12;;;;;;;4.03;0.50;;;22.10;99.90;;;;;;5015082;28;20492;-68
2022/04/23 03:12:40;;;;;;;6.97;0.80;;;22.30;99.90;;;;;;5034412;28;20018;-68
2022/04/23 03:15:09;;;;;;;2.05;0.68;;;22.10;99.90;;;;;;5034454;28;20029;-68
2022/04/23 03:17:37;;;;;;;3.75;0.38;;;21.60;99.90;;;;;;5032921;28;20377;-68
2022/04/23 03:20:08;;;;;;;5.88;0.55;;;21.30;99.90;;;;;;5034236;28;20466;-68
2022/04/23 03:22:35;;;;;;;3.10;0.80;;;21.00;99.90;;;;;;5033259;28;20140;-68
2022/04/23 03:25:02;;;;;;;4.88;0.40;;;20.90;99.90;;;;;;5033127;28;20027;-68
2022/04/23 03:27:31;;;;;;;4.78;0.80;;;20.80;99.90;;;;;;5032274;28;20040;-68
2022/04/23 03:30:01;;;;;;;6.35;1.85;;;20.60;99.90;;;;;;5034336;28;20022;-68
2022/04/23 03:32:29;;;;;;;4.30;0.70;;;20.40;99.90;;;;;;5032850;28;20559;-68
2022/04/23 03:34:56;;;;;;;5.38;1.52;;;20.30;99.90;;;;;;5034219;28;20458;-68
2022/04/23 03:37:24;;;;;;;2.25;0.55;;;20.20;99.90;;;;;;5031323;28;20022;-68
2022/04/23 03:39:51;;;;;;;3.75;0.70;;;20.20;99.90;;;;;;5031652;28;20030;-68
2022/04/23 03:42:18;;;;;;;3.17;0.68;;;20.10;99.90;;;;;;5031075;28;20033;-68
2022/04/23 03:44:45;;;;;;;4.15;0.40;;;20.30;99.90;;;;;;5033922;28;20385;-68
2022/04/23 03:47:13;;;;;;;5.75;0.80;;;20.30;99.90;;;;;;5031979;28;20068;-68
2022/04/23 03:49:40;;;;;;;3.45;0.30;;;20.50;99.90;;;;;;5032262;28;20089;-68
2022/04/23 03:52:10;;;;;;;1.55;0.43;;;20.50;99.90;;;;;;5020847;28;20033;-68
2022/04/23 03:54:38;;;;;;;2.15;0.30;;;20.50;99.90;;;;;;5031333;28;20438;-68
2022/04/23 03:57:05;;;;;;;3.78;0.43;;;20.40;99.90;;;;;;5029343;28;20068;-68
2022/04/23 03:59:33;;;;;;;3.83;0.52;;;20.20;99.90;;;;;;5033774;28;20114;-68
2022/04/23 04:02:04;;;;;;;2.35;0.22;;;20.10;99.90;;;;;;5040646;28;20396;-68
2022/04/23 04:04:34;;;;;;;4.57;0.50;;;20.00;99.90;;;;;;5032649;28;20501;-68
2022/04/23 04:07:02;;;;;;;7.22;0.40;;;20.10;99.90;;;;;;5025501;28;20037;-68
2022/04/23 04:09:29;;;;;;;3.50;0.50;;;20.10;99.90;;;;;;5031751;28;20017;-68
2022/04/23 04:12:03;;;;;;;3.88;0.73;;;20.10;99.90;;;;;;5028209;28;20064;-68
2022/04/23 04:14:36;;;;;;;3.08;0.50;;;20.30;99.90;;;;;;5032267;28;20036;-68
2022/04/23 04:17:14;;;;;;;3.30;0.50;;;20.60;99.90;;;;;;5032225;28;20034;-68
2022/04/23 04:19:41;;;;;;;3.00;1.00;;;20.70;99.90;;;;;;5028702;28;20809;-67
2022/04/23 04:22:09;;;;;;;3.13;0.52;;;20.90;99.90;;;;;;5027253;28;20036;-68
2022/04/23 04:24:36;;;;;;;2.17;0.30;;;21.10;99.90;;;;;;5033052;28;20025;-67
2022/04/23 04:27:06;;;;;;;4.85;0.40;;;21.20;99.90;;;;;;5031539;28;20092;-67
2022/04/23 04:29:33;;;;;;;3.70;0.70;;;21.00;99.90;;;;;;5032884;28;20026;-68
2022/04/23 04:32:00;;;;;;;5.57;0.50;;;21.10;99.90;;;;;;5031491;28;20087;-67
2022/04/23 04:34:32;;;;;;;2.47;0.60;;;21.00;99.90;;;;;;5032143;28;20036;-67
2022/04/23 04:37:03;;;;;;;1.27;0.30;;;21.10;99.90;;;;;;5014545;28;20029;-68
2022/04/23 04:39:30;;;;;;;2.03;0.32;;;20.90;99.90;;;;;;5026105;28;20036;-68
2022/04/23 04:41:58;;;;;;;5.45;0.80;;;20.90;99.90;;;;;;5027912;28;20390;-67
2022/04/23 04:44:25;;;;;;;4.53;0.45;;;20.70;99.90;;;;;;5030389;28;20021;-67
2022/04/23 04:46:53;;;;;;;2.38;0.70;;;20.60;99.90;;;;;;5031790;28;20033;-68
2022/04/23 04:49:22;;;;;;;3.42;0.73;;;20.50;99.90;;;;;;5030199;28;20044;-68
2022/04/23 04:51:50;;;;;;;1.98;0.20;;;20.50;99.90;;;;;;5033897;28;20025;-68
2022/04/23 04:54:18;;;;;;;0.73;0.10;;;20.50;99.90;;;;;;5031653;28;20020;-68
2022/04/23 04:56:46;;;;;;;3.03;0.28;;;20.40;99.90;;;;;;5027091;28;20597;-67
2022/04/23 04:59:13;;;;;;;3.45;0.30;;;20.30;99.90;;;;;;5034955;28;20025;-67
2022/04/23 05:01:41;;;;;;;1.83;0.25;;;20.20;99.90;;;;;;5031814;28;20068;-67
2022/04/23 05:04:08;;;;;;;4.60;0.30;;;20.10;99.90;;;;;;5027316;28;20030;-67
2022/04/23 05:06:35;;;;;;;2.95;0.40;;;20.00;99.90;;;;;;5038329;28;20029;-67
2022/04/23 05:09:03;;;;;;;2.30;0.30;;;19.80;99.90;;;;;;5021951;28;20026;-67
2022/04/23 05:11:30;;;;;;;4.57;0.55;;;19.80;99.90;;;;;;5023085;28;20382;-67
2022/04/23 05:13:57;;;;;;;4.78;0.50;;;19.70;99.90;;;;;;5034541;28;20025;-67
2022/04/23 05:16:25;;;;;;;2.53;0.50;;;19.70;99.90;;;;;;5024159;28;20057;-68
2022/04/23 05:18:52;;;;;;;3.35;0.40;;;19.60;99.90;;;;;;5030024;28;20037;-67
2022/04/23 05:21:19;;;;;;;2.40;0.30;;;19.80;99.90;;;;;;5037439;28;20112;-68
2022/04/23 05:23:47;;;;;;;4.28;0.30;;;19.80;99.90;;;;;;5041554;28;20033;-68
2022/04/23 05:26:15;;;;;;;1.92;0.32;;;19.90;99.90;;;;;;5038198;28;20028;-68
2022/04/23 05:28:42;;;;;;;2.00;0.30;;;19.90;99.90;;;;;;5040069;28;20052;-67
2022/04/23 05:31:10;;;;;;;2.72;0.32;;;20.00;99.90;;;;;;5035865;28;20031;-68
2022/04/23 05:33:38;;;;;;;1.90;0.10;;;20.00;99.90;;;;;;5041629;28;20029;-69
2022/04/23 05:36:06;;;;;;;3.40;0.35;;;20.00;99.90;;;;;;5034834;28;20025;-69
2022/04/23 05:38:37;;;;;;;2.92;0.20;;;20.00;99.90;;;;;;5044853;28;20033;-69
2022/04/23 05:41:05;;;;;;;3.22;0.50;;;20.00;99.90;;;;;;5035106;28;20133;-69
2022/04/23 05:43:32;;;;;;;1.42;0.20;;;20.00;99.90;;;;;;5032970;28;20100;-69
2022/04/23 05:46:00;;;;;;;5.07;0.30;;;20.00;99.90;;;;;;5039188;28;20028;-69
2022/04/23 05:48:27;;;;;;;3.17;0.28;;;20.00;99.90;;;;;;5039752;28;20141;-69
2022/04/23 05:50:55;;;;;;;2.53;0.52;;;20.00;99.90;;;;;;5034373;28;20025;-68
2022/04/23 05:53:22;;;;;;;3.05;0.90;;;19.90;99.90;;;;;;5037104;28;20068;-69
2022/04/23 05:55:50;;;;;;;3.17;0.30;;;19.90;99.90;;;;;;5028269;28;20100;-69
2022/04/23 05:58:17;;;;;;;6.05;0.95;;;19.90;99.90;;;;;;5039725;28;20025;-68
2022/04/23 06:00:44;;;;;;;1.70;0.50;;;19.90;99.90;;;;;;5036935;28;20060;-66
2022/04/23 06:03:12;;;;;;;2.53;0.20;;;19.90;99.90;;;;;;5037399;28;20079;-66
2022/04/23 06:05:40;;;;;;;3.40;0.55;;;20.00;99.90;;;;;;5034464;28;20401;-66
2022/04/23 06:08:08;;;;;;;1.90;0.20;;;19.90;99.90;;;;;;5048857;28;20037;-68
2022/04/23 06:10:36;;;;;;;2.10;0.30;;;19.90;99.90;;;;;;5033816;28;20024;-69
2022/04/23 06:13:06;;;;;;;4.32;0.32;;;19.90;99.90;;;;;;5038227;28;20075;-68
2022/04/23 06:15:34;;;;;;;1.75;0.10;;;19.90;99.90;;;;;;5037984;28;20036;-67
2022/04/23 06:18:05;;;;;;;3.28;0.30;;;19.90;99.90;;;;;;5021923;28;20049;-68
2022/04/23 06:20:33;;;;;;;4.50;0.28;;;19.90;99.90;;;;;;5019138;28;20030;-68
2022/04/23 06:23:04;;;;;;;1.33;0.20;;;19.90;99.90;;;;;;5041747;28;20022;-69
2022/04/23 06:25:32;;;;;;;2.45;0.43;;;19.80;99.90;;;;;;5034065;28;20040;-68
2022/04/23 06:28:00;;;;;;;2.92;0.30;;;19.70;99.90;;;;;;5039861;28;20453;-68
2022/04/23 06:30:28;;;;;;;1.98;0.30;;;19.80;99.90;;;;;;5045881;28;20052;-69
2022/04/23 06:32:55;;;;;;;2.80;0.38;;;19.70;99.90;;;;;;5032435;28;20109;-68
2022/04/23 06:35:24;;;;;;;5.10;0.40;;;19.70;99.90;;;;;;5042074;28;20167;-68
2022/04/23 06:37:51;;;;;;;2.33;0.30;;;19.70;99.90;;;;;;5040053;28;20029;-67
2022/04/23 06:40:18;;;;;;;2.92;0.50;;;19.70;99.90;;;;;;5037265;28;20071;-68
2022/04/23 06:42:45;;;;;;;4.22;0.20;;;19.60;99.90;;;;;;5032853;28;20018;-68
2022/04/23 06:45:13;;;;;;;1.27;0.10;;;19.50;99.90;;;;;;5028921;28;20032;-68
2022/04/23 06:47:40;;;;;;;4.10;0.30;;;19.40;99.90;;;;;;5026246;28;20026;-68
2022/04/23 06:50:08;;;;;;;5.28;0.43;;;19.50;99.90;;;;;;5033281;28;20032;-67
2022/04/23 06:52:36;;;;;;;3.58;0.47;;;19.50;99.90;;;;;;5032124;28;20041;-67
2022/04/23 06:55:05;;;;;;;1.38;0.30;;;19.40;99.90;;;;;;5032983;28;20037;-67
2022/04/23 06:57:32;;;;;;;3.88;0.50;;;19.30;99.90;;;;;;5031341;28;20310;-67
2022/04/23 07:00:03;;;;;;;2.10;0.30;;;19.30;99.90;;;;;;5038781;28;20041;-67
2022/04/23 07:02:30;;;;;;;3.42;0.43;;;19.30;99.90;;;;;;5032626;28;20663;-67
2022/04/23 07:04:58;;;;;;;2.78;0.50;;;19.20;99.90;;;;;;5038011;28;20040;-68
2022/04/23 07:07:25;;;;;;;2.25;0.30;;;19.20;99.90;;;;;;5033997;28;20501;-67
2022/04/23 07:09:52;;;;;;;2.65;0.50;;;19.10;99.90;;;;;;5029302;28;20038;-68
2022/04/23 07:12:19;;;;;;;9.07;1.20;;;19.10;99.90;;;;;;5027287;28;20413;-68
2022/04/23 07:14:46;;;;;;;4.75;0.73;;;19.00;99.90;;;;;;5028886;28;20029;-67
2022/04/23 07:17:14;;;;;;;3.97;0.57;;;19.00;99.90;;;;;;5031431;28;20049;-67
2022/04/23 07:19:42;;;;;;;2.70;0.47;;;19.00;99.90;;;;;;5026833;28;20048;-67
2022/04/23 07:22:10;;;;;;;1.55;0.40;;;19.00;99.90;;;;;;5023450;28;20509;-68
2022/04/23 07:24:38;;;;;;;2.45;0.40;;;18.90;99.90;;;;;;5033429;28;20505;-67
2022/04/23 07:27:05;;;;;;;1.08;0.20;;;18.90;99.90;;;;;;5025358;28;20029;-68
2022/04/23 07:29:33;;;;;;;1.83;0.30;;;18.90;99.90;;;;;;5014306;28;20033;-68
2022/04/23 07:32:00;;;;;;;3.22;0.35;;;18.90;99.90;;;;;;5027963;28;20424;-68
2022/04/23 07:37:33;;;;;;;2.60;0.45;;;18.70;99.90;;;;;;5033932;28;20161;-68
2022/04/23 07:40:10;;;;;;;4.05;0.90;;;18.70;99.90;;;;;;5031663;28;20034;-68
2022/04/23 07:42:38;;;;;;;4.13;0.90;;;18.70;99.90;;;;;;5033467;28;20038;-68
2022/04/23 07:45:06;;;;;;;4.72;0.50;;;18.70;99.90;;;;;;5025849;28;20102;-68
2022/04/23 07:47:34;;;;;;;3.17;0.55;;;18.70;99.90;;;;;;5035252;28;20029;-68
2022/04/23 07:50:01;;;;;;;3.08;0.77;;;18.60;99.90;;;;;;5033075;28;20034;-68
2022/04/23 07:52:28;;;;;;;4.57;0.60;;;18.60;99.90;;;;;;5025299;28;20374;-68
2022/04/23 07:54:56;;;;;;;2.08;0.68;;;18.60;99.90;;;;;;5031642;28;20024;-68
2022/04/23 07:57:24;;;;;;;4.43;1.00;;;18.50;99.90;;;;;;5032368;28;20100;-68
2022/04/23 07:59:51;;;;;;;3.25;0.40;;;18.50;99.90;;;;;;5033378;28;20026;-67
2022/04/23 08:02:19;;;;;;;3.63;1.52;;;18.50;99.90;;;;;;5025270;28;20052;-68
2022/04/23 08:04:46;;;;;;;6.88;0.75;;;18.50;99.90;;;;;;5030255;28;20386;-68
2022/04/23 08:07:15;;;;;;;4.43;1.00;;;18.40;99.90;;;;;;5028291;28;20037;-68
2022/04/23 08:09:42;;;;;;;1.90;0.85;;;18.30;99.90;;;;;;5029782;28;20014;-69
2022/04/23 08:12:10;;;;;;;2.47;0.50;;;18.30;99.90;;;;;;5023779;28;20034;-68
2022/04/23 08:14:38;;;;;;;4.43;0.55;;;18.30;99.90;;;;;;5023989;28;20029;-68
2022/04/23 08:17:05;;;;;;;3.45;0.77;;;18.30;99.90;;;;;;5031409;28;20421;-68
2022/04/23 08:19:33;;;;;;;2.75;0.52;;;18.20;99.90;;;;;;5031864;28;20561;-68
2022/04/23 08:22:00;;;;;;;3.03;0.55;;;18.20;99.90;;;;;;5031487;28;20033;-68
2022/04/23 08:24:30;;;;;;;3.47;1.15;;;18.20;99.90;;;;;;5040623;28;20032;-68
2022/04/23 08:26:57;;;;;;;3.42;0.60;;;18.10;99.90;;;;;;5031437;28;20037;-68
2022/04/23 08:32:24;;;;;;;4.15;0.68;;;18.10;99.90;;;;;;4996799;28;20546;-68
2022/04/23 08:34:53;;;;;;;3.55;0.63;;;18.10;99.90;;;;;;5018703;28;20059;-68
2022/04/23 08:37:25;;;;;;;3.17;0.70;;;18.00;99.90;;;;;;5034080;28;20076;-68
2022/04/23 08:39:52;;;;;;;5.80;1.35;;;18.00;99.90;;;;;;5033308;28;20036;-68
2022/04/23 08:42:20;;;;;;;4.57;1.40;;;17.90;99.90;;;;;;5029212;28;20030;-68
2022/04/23 08:44:47;;;;;;;4.45;1.67;;;17.90;99.90;;;;;;5028077;28;20121;-68
2022/04/23 08:47:16;;;;;;;6.53;1.63;;;17.80;99.90;;;;;;5031601;28;20474;-69
2022/04/23 08:49:45;;;;;;;8.82;1.35;;;17.90;99.90;;;;;;5032568;28;20084;-68
2022/04/23 08:52:31;;;;;;;5.78;1.92;;;17.90;99.90;;;;;;5018656;28;20132;-68
2022/04/23 08:55:00;;;;;;;7.18;2.03;;;17.90;99.90;;;;;;5013172;28;20383;-68
2022/04/23 08:57:30;;;;;;;6.28;2.13;;;17.80;99.90;;;;;;5031073;28;20103;-68
2022/04/23 08:59:58;;;;;;;6.68;1.77;;;17.80;99.90;;;;;;5029971;28;20533;-68
2022/04/23 09:02:26;;;;;;;5.88;1.27;;;17.80;99.90;;;;;;5028414;28;20080;-68
2022/04/23 09:04:54;;;;;;;2.85;1.38;;;17.80;99.90;;;;;;5031600;28;20025;-68
2022/04/23 09:07:26;;;;;;;5.20;1.20;;;17.70;99.90;;;;;;5015866;28;20410;-69
2022/04/23 09:09:56;;;;;;;5.18;1.58;;;17.80;99.90;;;;;;5013198;28;20500;-69
2022/04/23 09:12:25;;;;;;;3.53;1.33;;;17.70;99.90;;;;;;5029190;28;20041;-68
2022/04/23 09:14:54;;;;;;;5.03;1.75;;;17.70;99.90;;;;;;5033246;28;20022;-68
2022/04/23 09:25:50;;;;;;;5.43;2.00;;;17.60;99.90;;;;;;5045706;28;20041;-68
2022/04/23 09:28:19;;;;;;;6.45;2.38;;;17.60;99.90;;;;;;5030849;28;20026;-68
2022/04/23 09:30:47;;;;;;;4.88;1.73;;;17.50;99.90;;;;;;5030486;28;20021;-68
2022/04/23 09:33:15;;;;;;;5.07;2.00;;;17.50;99.90;;;;;;5018043;28;20030;-69
2022/04/23 09:36:04;;;;;;;6.65;1.90;;;17.50;99.90;;;;;;5021157;28;20033;-68
2022/04/23 09:38:32;;;;;;;5.43;1.92;;;17.60;99.90;;;;;;5031183;28;20490;-68
2022/04/23 09:41:15;;;;;;;5.93;2.08;;;17.50;99.90;;;;;;5029814;28;20040;-68
2022/04/23 09:43:44;;;;;;;7.50;1.98;;;17.50;99.90;;;;;;5031338;28;20681;-68
2022/04/23 09:46:12;;;;;;;2.30;0.90;;;17.70;99.90;;;;;;5029088;28;20036;-68
2022/04/23 09:48:43;;;;;;;7.63;1.95;;;17.70;99.90;;;;;;5030226;28;20045;-68
2022/04/23 09:51:28;;;;;;;5.65;1.70;;;17.80;99.90;;;;;;5018297;28;20551;-68
2022/04/23 09:53:56;;;;;;;9.07;2.13;;;17.80;99.90;;;;;;5032240;28;20041;-68
2022/04/23 09:56:25;;;;;;;3.50;1.45;;;17.80;99.90;;;;;;5030604;28;20494;-68
2022/04/23 09:58:56;;;;;;;3.65;1.40;;;17.80;99.90;;;;;;5032242;28;20573;-69
2022/04/23 10:01:24;;;;;;;4.05;1.85;;;17.80;99.90;;;;;;5029929;28;20053;-68
2022/04/23 10:03:53;;;;;;;4.28;1.60;;;17.80;99.90;;;;;;5030452;28;20116;-68
2022/04/23 10:06:23;;;;;;;6.78;1.15;;;17.80;99.90;;;;;;5032830;28;20053;-68
2022/04/23 10:08:55;;;;;;;6.70;1.80;;;17.80;99.90;;;;;;5034645;28;20398;-68
2022/04/23 10:11:26;;;;;;;4.60;1.55;;;17.80;99.90;;;;;;5031062;28;20032;-68
2022/04/23 10:14:01;;;;;;;3.92;1.48;;;17.80;99.90;;;;;;5034826;28;20037;-68
2022/04/23 10:16:33;;;;;;;4.22;2.20;;;17.70;99.90;;;;;;5029693;28;20024;-68
2022/04/23 10:19:01;;;;;;;4.43;2.65;;;17.60;99.90;;;;;;5033207;28;20076;-68
2022/04/23 10:21:44;;;;;;;4.45;2.28;;;17.50;99.90;;;;;;5026183;28;20021;-68
2022/04/23 10:24:22;;;;;;;6.53;2.17;;;17.50;99.90;;;;;;5018828;28;20386;-68
2022/04/23 10:27:10;;;;;;;7.32;2.15;;;17.40;99.90;;;;;;5026989;28;20398;-68
2022/04/23 10:29:39;;;;;;;4.43;2.13;;;17.30;99.90;;;;;;5026968;28;20045;-68
2022/04/23 10:32:16;;;;;;;4.63;1.80;;;17.30;99.90;;;;;;5033626;28;20025;-68
2022/04/23 10:34:44;;;;;;;6.00;1.60;;;17.20;99.90;;;;;;5034080;28;20041;-68
2022/04/23 10:37:27;;;;;;;6.65;2.25;;;17.20;99.90;;;;;;5033129;28;20059;-68
2022/04/23 10:39:54;;;;;;;7.20;2.10;;;17.10;99.90;;;;;;5034633;28;20022;-68
2022/04/23 10:42:23;;;;;;;4.22;1.92;;;17.10;99.90;;;;;;5016842;28;20771;-68
2022/04/23 10:44:54;;;;;;;3.20;1.52;;;17.10;99.90;;;;;;5030256;28;20358;-68
2022/04/23 10:47:39;;;;;;;6.35;2.00;;;17.10;99.90;;;;;;5017666;28;20038;-68
2022/04/23 10:50:23;;;;;;;7.10;2.28;;;17.10;99.90;;;;;;5015497;28;20034;-68
2022/04/23 10:52:53;;;;;;;3.58;1.83;;;17.20;99.90;;;;;;5031923;28;20025;-68
2022/04/23 10:55:21;;;;;;;5.55;2.85;;;17.20;99.90;;;;;;5034014;28;20061;-68
2022/04/23 10:57:52;;;;;;;5.72;2.50;;;17.20;99.90;;;;;;5034735;28;20061;-68
2022/04/23 11:00:21;;;;;;;3.08;1.80;;;17.10;99.90;;;;;;5026886;28;20101;-68
2022/04/23 11:02:55;;;;;;;4.97;2.38;;;17.10;99.90;;;;;;5034495;28;20469;-68
2022/04/23 11:13:58;;;;;;;7.88;3.38;;;17.10;99.90;;;;;;5033684;28;20171;-68
2022/04/23 11:16:29;;;;;;;7.78;3.55;;;17.20;99.90;;;;;;5031279;28;20030;-68
2022/04/23 11:18:59;;;;;;;6.30;3.05;;;17.20;99.90;;;;;;5015554;28;20107;-68
2022/04/23 11:21:32;;;;;;;8.55;2.53;;;17.20;99.90;;;;;;5025574;28;20053;-68
2022/04/23 11:24:01;;;;;;;8.23;3.28;;;17.20;99.90;;;;;;5033090;28;20036;-68
2022/04/23 11:26:44;;;;;;;5.10;3.20;;;17.30;99.90;;;;;;5033029;28;20026;-68
2022/04/23 11:29:13;;;;;;;10.15;4.25;;;17.30;99.90;;;;;;5034563;28;20029;-68
2022/04/23 11:31:41;;;;;;;14.45;6.13;;;17.20;99.90;;;;;;5025133;28;20129;-68
2022/04/23 11:34:08;;;;;;;10.07;5.30;;;17.20;99.90;;;;;;5032977;28;20442;-68
2022/04/23 11:36:37;;;;;;;10.50;4.47;;;17.20;99.90;;;;;;5032182;28;20025;-68
2022/04/23 11:39:12;;;;;;;6.15;3.05;;;17.20;99.90;;;;;;5032394;28;20032;-68
2022/04/23 11:41:43;;;;;;;5.65;2.30;;;17.10;99.90;;;;;;5025059;28;20040;-68
2022/04/23 11:44:17;;;;;;;5.35;2.15;;;17.10;99.90;;;;;;5017037;28;20037;-68
2022/04/23 11:46:51;;;;;;;6.57;2.05;;;17.00;99.90;;;;;;5032888;28;20100;-68
2022/04/23 11:49:26;;;;;;;7.15;1.70;;;17.00;99.90;;;;;;5032471;28;20382;-68
2022/04/23 11:52:00;;;;;;;5.30;1.35;;;17.00;99.90;;;;;;5031063;28;20105;-68
2022/04/23 11:54:41;;;;;;;7.18;1.67;;;16.90;99.90;;;;;;5022800;28;20099;-68
2022/04/23 11:57:19;;;;;;;3.28;0.88;;;16.90;99.90;;;;;;5026358;28;20041;-68
2022/04/23 11:59:48;;;;;;;4.13;1.02;;;16.90;99.90;;;;;;5033671;28;20105;-68
2022/04/23 12:02:21;;;;;;;4.95;0.98;;;16.90;99.90;;;;;;5032187;28;20494;-68
2022/04/23 12:04:54;;;;;;;3.45;1.40;;;16.80;99.90;;;;;;5032516;28;20017;-68
2022/04/23 12:07:22;;;;;;;5.63;1.42;;;16.80;99.90;;;;;;5031721;28;20037;-68
2022/04/23 12:09:58;;;;;;;4.05;1.00;;;16.70;99.90;;;;;;5033347;28;20022;-68
2022/04/23 12:12:28;;;;;;;2.88;1.00;;;16.70;99.90;;;;;;5016494;28;20025;-68
2022/04/23 12:15:04;;;;;;;7.60;3.55;;;16.70;99.90;;;;;;5016985;28;20032;-68
2022/04/23 12:17:45;;;;;;;6.93;2.72;;;16.80;99.90;;;;;;5028898;28;20025;-68
2022/04/23 12:20:17;;;;;;;7.35;3.45;;;16.80;99.90;;;;;;5032455;28;20026;-68
2022/04/23 12:23:01;;;;;;;9.23;2.90;;;16.80;99.90;;;;;;5015694;28;20554;-68
2022/04/23 12:25:30;;;;;;;7.72;3.75;;;16.80;99.90;;;;;;5029747;28;20029;-68
2022/04/23 12:42:14;;;;;;;9.85;4.25;;;17.00;99.90;;;;;;5031290;28;20092;-68
2022/04/23 12:44:43;;;;;;;5.88;3.50;;;17.00;99.90;;;;;;5038890;28;20021;-68
2022/04/23 12:47:16;;;;;;;5.57;3.72;;;16.90;99.90;;;;;;5031771;28;20033;-68
2022/04/23 12:49:58;;;;;;;9.70;4.03;;;17.00;99.90;;;;;;5023422;28;20481;-66
2022/04/23 12:52:39;;;;;;;8.98;4.13;;;16.90;99.90;;;;;;5028453;28;20029;-67
2022/04/23 12:58:18;;;;;;;9.95;3.78;;;16.90;99.90;;;;;;5027711;28;20029;-67
2022/04/23 13:00:46;;;;;;;10.02;3.65;;;16.80;99.90;;;;;;5026036;28;20026;-67
2022/04/23 13:03:23;;;;;;;9.18;3.67;;;16.70;99.90;;;;;;5024016;28;20565;-67
2022/04/23 13:05:51;;;;;;;9.05;3.80;;;16.70;99.90;;;;;;5026915;28;20029;-67
2022/04/23 13:13:41;;;;;;;7.10;3.92;;;16.60;99.90;;;;;;5022883;28;20112;-67
2022/04/23 13:16:08;;;;;;;7.65;3.78;;;16.60;99.90;;;;;;5027294;28;20536;-68
2022/04/23 13:18:35;;;;;;;5.97;3.47;;;16.60;99.90;;;;;;5026730;28;20045;-68
2022/04/23 13:21:05;;;;;;;6.82;2.60;;;16.70;99.90;;;;;;5021589;28;20108;-67
2022/04/23 13:23:35;;;;;;;9.10;2.45;;;16.70;99.90;;;;;;5029994;28;20029;-67
2022/04/23 13:26:03;;;;;;;3.63;2.22;;;16.80;99.90;;;;;;5032116;28;20048;-67
2022/04/23 13:28:30;;;;;;;3.70;1.70;;;16.80;99.90;;;;;;5027630;28;20030;-68
2022/04/23 13:30:58;;;;;;;10.55;2.03;;;16.80;99.90;;;;;;5025903;28;20366;-67
2022/04/23 13:33:26;;;;;;;4.35;1.23;;;16.70;99.90;;;;;;5024149;28;20028;-68
2022/04/23 13:35:53;;;;;;;5.97;1.17;;;16.60;99.90;;;;;;5027703;28;20053;-68
2022/04/23 13:38:21;;;;;;;4.88;1.42;;;16.60;99.90;;;;;;5029199;28;20021;-68
2022/04/23 13:40:49;;;;;;;3.30;1.10;;;16.60;99.90;;;;;;5026873;28;20036;-67
2022/04/23 13:43:17;;;;;;;4.57;1.30;;;16.60;99.90;;;;;;5032035;28;20036;-67